Time;durP1;ratioP1;P1;durP2;ratioP2;P2;SDS_P1;SDS_P2;PMS_P1;PMS_P2;Temp;Humidity;BMP_temperature;BMP_pressure;BME280_temperature;BME280_humidity;BME280_pressure;Samples;Min_cycle;Max_cycle;Signal;HPM_P1;HPM_P2
2021/08/10 00:01:02;;;;;;;16.17;8.43;;;;;;;12.18;100.00;101462.78;4987619;28;20174;-77
2021/08/10 00:03:34;;;;;;;18.85;10.00;;;;;;;12.02;100.00;101447.59;4979928;28;20041;-76
2021/08/10 00:06:04;;;;;;;16.65;9.05;;;;;;;12.02;100.00;101444.97;5000151;28;20699;-74
2021/08/10 00:08:39;;;;;;;18.40;9.63;;;;;;;11.95;100.00;101439.41;5010582;28;20117;-77
2021/08/10 00:11:09;;;;;;;18.38;10.10;;;;;;;12.18;100.00;101458.34;4990558;28;20118;-75
2021/08/10 00:13:35;;;;;;;17.42;9.25;;;;;;;12.26;100.00;101470.81;4988809;28;20044;-74
2021/08/10 00:16:22;;;;;;;17.15;10.07;;;;;;;12.38;100.00;101471.50;5005934;28;20049;-75
2021/08/10 00:18:52;;;;;;;18.27;9.88;;;;;;;12.38;100.00;101479.41;4981490;28;20029;-75
2021/08/10 00:21:19;;;;;;;15.18;8.95;;;;;;;12.28;100.00;101445.19;5037748;28;20064;-75
2021/08/10 00:23:49;;;;;;;17.70;10.23;;;;;;;12.49;100.00;101460.81;5000128;28;20136;-76
2021/08/10 00:26:21;;;;;;;16.50;8.95;;;;;;;12.17;100.00;101433.03;4997729;28;20041;-76
2021/08/10 00:28:50;;;;;;;17.80;10.05;;;;;;;12.21;100.00;101447.56;4994508;28;20041;-75
2021/08/10 00:31:19;;;;;;;17.35;9.07;;;;;;;12.29;100.00;101467.91;4993097;28;20033;-75
2021/08/10 00:33:46;;;;;;;15.27;8.80;;;;;;;12.22;100.00;101446.59;4996857;28;20040;-75
2021/08/10 00:36:15;;;;;;;17.33;8.98;;;;;;;12.23;100.00;101437.72;5024021;28;20379;-76
2021/08/10 00:38:45;;;;;;;17.60;8.57;;;;;;;12.40;100.00;101459.03;5009986;28;20045;-75
2021/08/10 00:41:18;;;;;;;16.77;9.40;;;;;;;12.31;100.00;101447.53;4974961;28;20026;-75
2021/08/10 00:43:51;;;;;;;17.13;8.65;;;;;;;12.33;100.00;101461.38;4975386;28;20116;-74
2021/08/10 00:46:21;;;;;;;18.48;9.20;;;;;;;12.21;100.00;101449.38;4980545;28;20127;-75
2021/08/10 00:48:47;;;;;;;18.60;9.13;;;;;;;12.22;100.00;101461.53;5007903;28;20434;-76
2021/08/10 00:51:20;;;;;;;17.02;8.70;;;;;;;12.16;100.00;101456.84;5013630;28;20491;-76
2021/08/10 00:53:52;;;;;;;18.05;8.55;;;;;;;12.08;100.00;101432.06;4982931;28;20033;-76
2021/08/10 00:56:24;;;;;;;;;;;;;;;12.22;100.00;101457.13;4983532;28;20092;-75
2021/08/10 00:58:56;;;;;;;13.52;7.80;;;;;;;11.96;100.00;101434.97;4981836;28;19921;-75
2021/08/10 01:01:25;;;;;;;10.88;7.28;;;;;;;11.91;100.00;101439.84;5011090;28;20133;-75
2021/08/10 01:03:53;;;;;;;12.88;7.55;;;;;;;11.93;100.00;101458.94;4998430;28;20088;-76
2021/08/10 01:06:47;;;;;;;12.07;7.47;;;;;;;11.96;100.00;101464.75;5017944;28;20026;-77
2021/08/10 01:09:55;;;;;;;15.32;7.45;;;;;;;11.94;100.00;101468.47;4995903;28;20546;-75
2021/08/10 01:12:54;;;;;;;15.05;7.30;;;;;;;11.91;100.00;101471.38;5003410;28;20037;-76
2021/08/10 01:15:26;;;;;;;12.73;7.13;;;;;;;11.86;100.00;101467.31;5010752;28;20529;-76
2021/08/10 01:18:01;;;;;;;10.63;7.10;;;;;;;11.86;100.00;101462.06;5011702;28;20037;-75
2021/08/10 01:21:06;;;;;;;12.75;6.75;;;;;;;11.77;100.00;101457.66;4991851;28;20064;-74
2021/08/10 01:23:34;;;;;;;12.40;7.25;;;;;;;11.64;100.00;101457.91;4977653;28;20041;-75
2021/08/10 01:26:29;;;;;;;9.68;6.30;;;;;;;11.57;100.00;101456.78;4977767;28;20034;-76
2021/08/10 01:29:35;;;;;;;14.25;6.55;;;;;;;11.50;100.00;101455.66;5008738;28;20042;-75
2021/08/10 01:32:09;;;;;;;15.30;7.47;;;;;;;11.46;100.00;101443.75;5008098;23;20042;-83
2021/08/10 01:34:46;;;;;;;;;;;;;;;11.44;100.00;101461.44;5001034;28;20050;-84
2021/08/10 01:37:55;;;;;;;11.57;6.20;;;;;;;11.42;100.00;101451.06;5008741;28;19914;-83
2021/08/10 01:41:24;;;;;;;12.25;6.22;;;;;;;11.40;100.00;101454.81;4988315;28;20038;-82
2021/08/10 01:44:47;;;;;;;12.50;6.38;;;;;;;11.14;100.00;101423.75;4981621;28;20114;-81
2021/08/10 01:51:09;;;;;;;7.95;5.10;;;;;;;11.18;100.00;101448.78;4989412;28;20078;-79
2021/08/10 01:54:04;;;;;;;;;;;;;;;;;;;;;
2021/08/10 02:00:07;;;;;;;8.35;5.50;;;;;;;11.19;100.00;101454.84;5030727;28;20049;-83
2021/08/10 02:03:50;;;;;;;9.27;4.80;;;;;;;11.19;100.00;101458.34;5143367;22;20037;-76
2021/08/10 02:11:29;;;;;;;7.85;4.97;;;;;;;11.15;100.00;101456.94;4945040;28;20055;-76
2021/08/10 02:18:52;;;;;;;6.50;4.32;;;;;;;10.98;100.00;101441.78;4993490;28;20049;-75
2021/08/10 02:21:58;;;;;;;8.52;4.47;;;;;;;11.11;100.00;101458.16;5028669;23;20045;-75
2021/08/10 02:25:03;;;;;;;7.80;4.82;;;;;;;11.15;100.00;101456.94;4986979;28;20129;-75
2021/08/10 02:27:56;;;;;;;8.45;4.32;;;;;;;11.17;100.00;101459.41;4989234;28;20133;-76
2021/08/10 02:30:52;;;;;;;10.40;4.47;;;;;;;11.27;100.00;101458.50;4982277;28;20042;-76
2021/08/10 02:38:25;;;;;;;5.63;4.45;;;;;;;11.22;100.00;101455.44;5001978;28;20068;-76
2021/08/10 02:41:21;;;;;;;;;;;;;;;11.14;100.00;101455.28;4986436;28;20029;-75
2021/08/10 02:45:19;;;;;;;7.05;4.20;;;;;;;11.14;100.00;101447.41;5002557;28;19997;-75
2021/08/10 02:48:12;;;;;;;7.25;3.95;;;;;;;11.21;100.00;101448.53;5004099;28;20565;-76
2021/08/10 02:50:38;;;;;;;6.35;3.83;;;;;;;10.99;100.00;101420.66;5007573;23;20125;-81
2021/08/10 02:53:06;;;;;;;5.93;3.78;;;;;;;11.18;100.00;101445.34;5012666;28;20029;-81
2021/08/10 03:07:41;;;;;;;6.50;4.00;;;;;;;11.02;100.00;101441.41;4942985;28;20057;-75
2021/08/10 03:10:20;;;;;;;8.02;4.32;;;;;;;11.18;100.00;101445.34;4965695;28;20031;-77
2021/08/10 03:13:19;;;;;;;6.32;4.05;;;;;;;11.23;100.00;101441.34;4970837;28;20050;-74
2021/08/10 03:16:15;;;;;;;6.10;4.38;;;;;;;11.29;100.00;101443.44;4954443;28;20034;-75
2021/08/10 03:18:57;;;;;;;6.30;4.05;;;;;;;11.35;100.00;101439.44;4983225;28;20038;-74
2021/08/10 03:21:47;;;;;;;13.23;4.60;;;;;;;11.42;100.00;101445.00;4983493;28;20496;-76
2021/08/10 03:28:33;;;;;;;7.03;4.13;;;;;;;11.48;100.00;101440.00;4988174;28;20515;-74
2021/08/10 03:31:32;;;;;;;5.93;4.05;;;;;;;11.46;100.00;101423.56;4986991;28;20086;-75
2021/08/10 03:41:58;;;;;;;8.82;4.50;;;;;;;11.82;100.00;101439.66;4964571;28;20051;-74
2021/08/10 03:44:49;;;;;;;;;;;;;;;11.82;100.00;101437.00;4959897;28;20039;-75
2021/08/10 03:47:17;;;;;;;7.60;4.47;;;;;;;11.90;100.00;101430.28;4955592;28;19921;-75
2021/08/10 03:49:56;;;;;;;6.88;4.72;;;;;;;11.93;100.00;101443.16;4957199;28;20039;-75
2021/08/10 03:53:52;;;;;;;7.82;4.53;;;;;;;11.77;100.00;101412.13;5056145;22;20050;-75
2021/08/10 04:01:06;;;;;;;6.72;4.40;;;;;;;11.81;100.00;101408.22;4895202;29;20082;-75
2021/08/10 04:15:15;;;;;;;5.78;4.13;;;;;;;12.04;100.00;101445.66;4908815;29;20116;-76
2021/08/10 04:17:42;;;;;;;9.75;5.00;;;;;;;12.03;100.00;101450.06;4918502;29;20099;-76
2021/08/10 04:20:11;;;;;;;10.43;4.50;;;;;;;12.11;100.00;101459.06;4887775;28;20032;-77
2021/08/10 04:22:40;;;;;;;7.10;4.28;;;;;;;12.17;100.00;101461.97;4975938;28;20034;-77
2021/08/10 04:26:39;;;;;;;7.05;4.43;;;;;;;12.23;100.00;101461.41;4976688;28;20050;-77
2021/08/10 04:29:56;;;;;;;8.75;4.43;;;;;;;12.31;100.00;101450.19;4971975;28;20038;-74
2021/08/10 04:32:43;;;;;;;11.50;4.97;;;;;;;12.35;100.00;101445.47;5406199;22;20048;-76
2021/08/10 04:35:09;;;;;;;8.88;4.78;;;;;;;12.35;100.00;101440.22;4992667;28;20034;-77
2021/08/10 04:37:37;;;;;;;7.15;4.35;;;;;;;12.41;100.00;101453.66;5040121;28;20037;-75
2021/08/10 04:40:13;;;;;;;9.95;4.68;;;;;;;12.42;100.00;101452.66;4993460;28;20034;-76
2021/08/10 04:43:12;;;;;;;8.80;4.38;;;;;;;12.53;100.00;101453.47;5028498;22;20422;-75
2021/08/10 04:53:21;;;;;;;8.45;4.35;;;;;;;12.45;100.00;101439.22;5003242;23;20131;-75
2021/08/10 04:55:56;;;;;;;6.93;4.10;;;;;;;12.53;100.00;101458.75;4896516;29;20719;-77
2021/08/10 04:58:31;;;;;;;8.75;4.55;;;;;;;12.53;100.00;101448.22;4886697;29;20115;-76
2021/08/10 05:01:07;;;;;;;8.13;4.30;;;;;;;12.65;100.00;101468.94;4894998;29;20032;-76
2021/08/10 05:03:44;;;;;;;8.43;4.25;;;;;;;12.62;100.00;101461.34;4874746;29;20064;-76
2021/08/10 05:06:54;;;;;;;6.80;4.28;;;;;;;12.75;100.00;101465.47;4882794;29;20064;-75
2021/08/10 05:09:26;;;;;;;7.25;4.35;;;;;;;12.73;100.00;101462.13;4871375;29;20144;-75
2021/08/10 05:27:13;;;;;;;9.25;4.60;;;;;;;12.57;100.00;101433.81;4918123;29;20035;-75
2021/08/10 05:29:39;;;;;;;11.10;4.47;;;;;;;12.71;100.00;101456.19;4908909;29;20064;-75
2021/08/10 05:36:11;;;;;;;6.72;4.53;;;;;;;12.88;100.00;101468.59;4977900;23;20059;-75
2021/08/10 05:38:43;;;;;;;6.72;4.40;;;;;;;12.89;100.00;101462.38;4928923;28;20635;-75
2021/08/10 05:41:39;;;;;;;6.93;4.20;;;;;;;12.84;100.00;101454.06;4934374;28;20763;-75
2021/08/10 05:44:09;;;;;;;7.18;3.90;;;;;;;12.93;100.00;101463.75;4945623;28;20033;-75
2021/08/10 05:46:38;;;;;;;12.15;4.03;;;;;;;12.96;100.00;101457.34;4945049;28;20043;-75
2021/08/10 05:49:14;;;;;;;5.93;4.30;;;;;;;13.02;100.00;101467.31;4951227;28;20381;-75
2021/08/10 05:55:40;;;;;;;7.78;4.15;;;;;;;13.00;100.00;101456.94;4919901;29;20050;-75
2021/08/10 05:59:27;;;;;;;6.40;4.30;;;;;;;13.03;100.00;101456.66;4912132;28;20058;-76
2021/08/10 06:02:23;;;;;;;6.82;4.20;;;;;;;13.06;100.00;101458.16;4943955;28;20049;-76
2021/08/10 06:13:35;;;;;;;9.75;4.40;;;;;;;12.90;100.00;101415.81;4985214;23;20060;-75
2021/08/10 06:23:43;;;;;;;10.07;4.30;;;;;;;13.00;100.00;101413.97;5164778;23;20518;-76
2021/08/10 06:26:53;;;;;;;8.13;4.65;;;;;;;13.05;100.00;101420.47;4867012;29;20052;-77
2021/08/10 06:33:47;;;;;;;8.73;5.10;;;;;;;13.19;100.00;101428.84;4877963;29;20080;-78
2021/08/10 06:37:04;;;;;;;8.27;4.43;;;;;;;13.26;100.00;101427.28;4845750;29;20025;-76
2021/08/10 06:43:22;;;;;;;7.80;4.57;;;;;;;13.17;100.00;101405.28;4871286;29;20540;-78
2021/08/10 06:46:04;;;;;;;8.68;4.53;;;;;;;13.32;100.00;101432.00;4838446;29;20469;-81
2021/08/10 06:50:26;;;;;;;;;;;;;;;;;;;;;
2021/08/10 06:54:02;;;;;;;7.20;4.78;;;;;;;13.50;100.00;101447.00;4764787;30;20126;-79
2021/08/10 06:57:39;;;;;;;10.82;4.80;;;;;;;13.57;100.00;101437.53;4773149;30;20047;-78
2021/08/10 07:00:18;;;;;;;6.82;4.40;;;;;;;13.69;100.00;101446.84;4753426;30;20031;-79
2021/08/10 07:02:45;;;;;;;8.48;4.28;;;;;;;13.87;100.00;101446.06;4861334;23;20088;-76
2021/08/10 07:05:18;;;;;;;8.75;4.20;;;;;;;13.94;100.00;101442.66;4842224;29;20506;-76
2021/08/10 07:08:03;;;;;;;8.35;4.45;;;;;;;14.02;100.00;101434.00;4857850;29;20029;-76
2021/08/10 07:10:42;;;;;;;8.68;4.30;;;;;;;14.17;100.00;101435.09;4869033;23;20028;-75
2021/08/10 07:17:01;;;;;;;7.95;4.60;;;;;;;14.67;100.00;101441.53;4862216;29;20083;-77
2021/08/10 07:19:33;;;;;;;6.57;4.40;;;;;;;14.74;100.00;101436.47;4875720;29;20040;-76
2021/08/10 07:22:23;;;;;;;6.78;4.40;;;;;;;14.59;100.00;101441.50;4855315;29;20029;-76
2021/08/10 07:25:02;;;;;;;6.75;3.92;;;;;;;14.58;100.00;101453.06;4851328;29;20037;-77
2021/08/10 07:27:39;;;;;;;10.00;4.60;;;;;;;14.59;100.00;101458.16;4841884;29;20053;-77
2021/08/10 07:30:28;;;;;;;9.07;4.53;;;;;;;14.65;100.00;101459.34;4817190;29;20052;-77
2021/08/10 07:37:31;;;;;;;8.50;4.60;;;;;;;14.79;100.00;101460.63;4819581;29;20093;-77
2021/08/10 07:44:32;;;;;;;12.05;5.30;;;;;;;14.79;100.00;101442.13;4889401;29;20124;-75
2021/08/10 07:47:29;;;;;;;6.57;4.75;;;;;;;14.85;100.00;101454.69;4901613;29;20048;-76
2021/08/10 07:50:01;;;;;;;6.07;4.22;;;;;;;14.85;100.00;101451.25;4890130;29;20040;-75
2021/08/10 07:52:36;;;;;;;6.75;4.80;;;;;;;14.93;100.00;101459.19;4877627;29;20036;-75
2021/08/10 07:55:27;;;;;;;8.85;4.80;;;;;;;14.87;100.00;101467.75;4875066;29;20045;-76
2021/08/10 07:58:07;;;;;;;8.45;5.15;;;;;;;14.76;100.00;101460.91;4886979;29;20643;-75
2021/08/10 08:00:57;;;;;;;10.95;5.22;;;;;;;14.70;100.00;101467.66;4885159;29;20071;-75
2021/08/10 08:03:29;;;;;;;;;;;;;;;14.76;100.00;101459.09;4874320;29;20045;-76
2021/08/10 08:06:01;;;;;;;9.70;5.22;;;;;;;14.81;100.00;101460.47;4864768;29;20327;-76
2021/08/10 08:08:44;;;;;;;8.57;5.13;;;;;;;14.76;100.00;101432.69;4875410;29;20147;-76
2021/08/10 08:11:50;;;;;;;9.35;5.88;;;;;;;15.10;100.00;101462.75;4908216;29;20091;-77
2021/08/10 08:14:19;;;;;;;9.18;5.25;;;;;;;15.20;100.00;101455.53;4896875;29;20092;-77
2021/08/10 08:24:30;;;;;;;10.43;5.28;;;;;;;15.41;100.00;101455.09;4967563;23;20044;-77
2021/08/10 08:27:04;;;;;;;8.02;5.18;;;;;;;15.47;100.00;101457.09;4907145;29;20255;-75
2021/08/10 08:29:45;;;;;;;9.23;5.20;;;;;;;15.50;100.00;101456.78;4884649;29;20036;-76
2021/08/10 08:32:22;;;;;;;8.27;4.85;;;;;;;15.59;100.00;101460.25;5033270;23;20099;-76
2021/08/10 08:45:35;;;;;;;8.70;5.13;;;;;;;15.66;100.00;101455.97;4948110;28;21985;-80
2021/08/10 08:48:05;;;;;;;7.53;4.82;;;;;;;15.72;100.00;101447.38;4906892;29;20027;-78
2021/08/10 08:58:24;;;;;;;7.10;4.50;;;;;;;16.29;100.00;101453.72;4834356;29;20041;-79
2021/08/10 09:00:53;;;;;;;10.27;4.47;;;;;;;16.36;100.00;101436.19;4808239;29;20376;-78
2021/08/10 09:07:59;;;;;;;6.85;4.55;;;;;;;17.03;99.83;101445.66;4787817;29;20066;-80
2021/08/10 09:14:07;;;;;;;11.15;4.60;;;;;;;16.83;100.00;101434.63;4907917;29;20824;-75
2021/08/10 09:17:20;;;;;;;11.05;4.28;;;;;;;16.88;100.00;101440.25;4865436;29;20123;-75
2021/08/10 09:20:08;;;;;;;;;;;;;;;;;;;;;
2021/08/10 09:23:49;;;;;;;9.98;4.10;;;;;;;17.52;96.14;101435.59;4888775;29;20036;-75
2021/08/10 09:26:55;;;;;;;6.78;3.50;;;;;;;17.87;92.88;101422.78;4821302;29;20083;-76
2021/08/10 09:29:51;;;;;;;10.18;3.72;;;;;;;18.29;90.15;101423.28;4873796;29;20088;-76
2021/08/10 09:33:16;;;;;;;7.30;3.25;;;;;;;18.75;92.84;101428.41;4869777;29;20129;-75
2021/08/10 09:36:22;;;;;;;4.13;3.00;;;;;;;19.37;89.64;101424.50;4797597;29;20055;-76
2021/08/10 09:39:30;;;;;;;12.20;3.20;;;;;;;19.35;86.91;101388.47;4802341;29;20038;-76
2021/08/10 09:43:08;;;;;;;6.93;3.00;;;;;;;19.53;84.92;101385.34;4860608;29;20222;-76
2021/08/10 09:46:25;;;;;;;6.93;2.50;;;;;;;19.53;83.16;101403.97;4836887;29;20047;-76
2021/08/10 09:48:59;;;;;;;10.07;2.92;;;;;;;19.98;82.13;101409.94;4852490;29;20095;-76
2021/08/10 09:56:07;;;;;;;;;;;;;;;;;;;;;
2021/08/10 09:59:28;;;;;;;5.18;2.70;;;;;;;20.28;79.87;101405.25;4854613;29;20053;-77
2021/08/10 10:04:08;;;;;;;7.03;2.58;;;;;;;20.78;78.58;101400.66;4835765;29;20046;-76
2021/08/10 10:07:15;;;;;;;6.87;2.73;;;;;;;20.24;78.42;101380.03;4752042;30;20146;-76
2021/08/10 10:10:27;;;;;;;5.63;2.50;;;;;;;20.48;81.53;101397.41;4775414;30;20043;-76
2021/08/10 10:13:36;;;;;;;5.07;2.83;;;;;;;20.08;80.43;101406.94;4753804;30;20103;-77
2021/08/10 10:16:22;;;;;;;6.13;2.80;;;;;;;19.34;81.10;101406.25;4781613;30;20066;-75
2021/08/10 10:19:14;;;;;;;5.65;2.63;;;;;;;18.97;86.39;101404.63;4757402;29;20043;-77
2021/08/10 10:21:50;;;;;;;4.72;2.83;;;;;;;18.75;86.01;101404.50;4789629;29;20123;-76
2021/08/10 10:24:21;;;;;;;4.88;2.58;;;;;;;18.68;88.68;101393.81;4883040;29;20033;-75
2021/08/10 10:27:11;;;;;;;5.47;2.40;;;;;;;19.22;86.34;101399.78;4876045;29;20064;-76
2021/08/10 10:29:40;;;;;;;6.05;2.75;;;;;;;19.64;84.46;101400.81;4860320;29;20495;-75
2021/08/10 10:32:09;;;;;;;5.70;2.95;;;;;;;20.15;83.98;101387.34;4860673;29;20120;-76
2021/08/10 10:34:42;;;;;;;3.78;2.30;;;;;;;20.69;77.71;101387.69;4859456;29;20040;-76
2021/08/10 10:37:10;;;;;;;5.40;2.58;;;;;;;20.96;73.02;101392.13;4859104;29;20503;-77
2021/08/10 10:39:41;;;;;;;4.60;2.35;;;;;;;20.85;77.34;101390.03;4845955;29;20036;-74
2021/08/10 10:42:12;;;;;;;4.75;2.85;;;;;;;20.93;76.29;101387.19;4846079;29;20124;-77
2021/08/10 10:47:54;;;;;;;5.57;2.67;;;;;;;20.13;75.69;101377.91;4870070;29;20052;-77
2021/08/10 10:51:04;;;;;;;4.80;2.95;;;;;;;19.58;80.44;101372.31;4875843;29;20491;-77
2021/08/10 10:54:22;;;;;;;;;;;;;;;;;;;;;
2021/08/10 10:57:35;;;;;;;5.43;2.85;;;;;;;19.29;86.17;101387.38;4881047;29;20155;-76
2021/08/10 11:03:35;;;;;;;8.75;3.20;;;;;;;19.17;82.92;101384.38;5064071;23;20551;-75
2021/08/10 11:06:33;;;;;;;9.45;3.30;;;;;;;19.03;85.16;101385.25;4858540;29;20761;-75
2021/08/10 11:09:04;;;;;;;5.53;3.20;;;;;;;19.18;87.07;101387.88;4862057;29;20489;-77
2021/08/10 11:11:49;;;;;;;5.53;3.50;;;;;;;19.28;88.63;101391.03;4875257;29;20445;-76
2021/08/10 11:14:37;;;;;;;7.05;3.35;;;;;;;19.42;88.75;101392.84;4862438;29;20040;-76
2021/08/10 11:17:15;;;;;;;6.35;3.58;;;;;;;19.62;86.02;101398.34;4855737;29;20060;-76
2021/08/10 11:19:55;;;;;;;10.18;3.50;;;;;;;19.83;84.29;101381.59;4889395;29;20067;-77
2021/08/10 11:22:28;;;;;;;6.50;3.40;;;;;;;19.95;86.02;101375.75;4935076;23;20040;-76
2021/08/10 11:25:02;;;;;;;5.38;3.03;;;;;;;20.11;84.51;101378.09;4909057;29;20043;-77
2021/08/10 11:36:05;;;;;;;11.98;3.10;;;;;;;19.27;85.05;101397.41;4919004;29;20076;-78
2021/08/10 11:43:31;;;;;;;8.40;3.70;;;;;;;18.71;89.80;101389.13;4919602;29;20455;-77
2021/08/10 11:50:11;;;;;;;6.63;3.85;;;;;;;18.34;93.13;101357.13;4851409;29;20070;-78
2021/08/10 12:06:29;;;;;;;4.32;3.28;;;;;;;20.74;79.28;101378.09;4816242;29;20038;-77
2021/08/10 12:09:35;;;;;;;10.50;3.97;;;;;;;21.17;80.39;101359.16;4790231;29;20571;-77
2021/08/10 12:12:06;;;;;;;10.63;4.05;;;;;;;21.53;72.84;101384.72;4778830;29;20149;-76
2021/08/10 12:14:40;;;;;;;6.95;3.25;;;;;;;21.83;72.57;101370.13;4810073;29;20438;-77
2021/08/10 12:17:19;;;;;;;5.68;3.40;;;;;;;21.61;67.33;101369.53;4871509;29;20036;-77
2021/08/10 12:19:49;;;;;;;7.90;3.70;;;;;;;21.36;70.33;101384.25;4873453;29;20511;-75
2021/08/10 12:22:25;;;;;;;5.53;3.08;;;;;;;21.04;75.69;101366.28;4868160;29;20041;-75
2021/08/10 12:24:54;;;;;;;9.05;3.92;;;;;;;20.65;73.56;101360.63;4841366;29;20044;-77
2021/08/10 12:27:33;;;;;;;5.63;3.08;;;;;;;20.09;82.86;101369.47;4836222;29;20047;-76
2021/08/10 12:30:25;;;;;;;5.28;3.78;;;;;;;19.32;82.83;101356.91;4849252;29;20057;-79
2021/08/10 12:33:56;;;;;;;7.60;3.38;;;;;;;18.97;81.96;101378.03;4857897;29;20072;-75
2021/08/10 12:36:22;;;;;;;3.78;2.58;;;;;;;18.68;77.65;101385.84;4871279;29;20085;-77
2021/08/10 12:38:54;;;;;;;6.55;2.70;;;;;;;18.82;83.93;101386.84;4884312;29;20044;-75
2021/08/10 12:41:46;;;;;;;3.95;1.90;;;;;;;19.56;81.53;101377.00;4923442;23;20161;-77
2021/08/10 12:44:43;;;;;;;3.38;2.05;;;;;;;20.65;83.63;101376.59;4895280;29;20079;-77
2021/08/10 12:54:12;;;;;;;4.05;1.70;;;;;;;21.57;76.60;101380.59;4889303;29;20051;-77
2021/08/10 12:57:28;;;;;;;8.10;1.77;;;;;;;22.03;68.92;101372.78;4861039;29;20055;-77
2021/08/10 13:00:15;;;;;;;4.43;1.55;;;;;;;22.14;69.87;101383.66;4858950;29;20109;-77
2021/08/10 13:03:17;;;;;;;;;;;;;;;;;;;;;
2021/08/10 13:06:29;;;;;;;5.40;2.00;;;;;;;22.41;67.65;101364.13;4848568;29;20041;-76
2021/08/10 13:08:58;;;;;;;2.03;1.42;;;;;;;22.31;69.06;101372.56;4876082;29;20104;-77
2021/08/10 13:11:25;;;;;;;4.60;1.90;;;;;;;22.49;65.45;101366.53;4860668;29;20025;-77
2021/08/10 13:14:13;;;;;;;2.55;1.60;;;;;;;22.59;69.82;101361.59;4860678;29;20097;-78
2021/08/10 13:17:16;;;;;;;4.90;1.90;;;;;;;21.96;73.70;101368.28;4855690;29;20055;-77
2021/08/10 13:20:25;;;;;;;2.72;1.80;;;;;;;22.05;71.09;101355.50;4887939;29;20072;-77
2021/08/10 13:23:35;;;;;;;5.50;1.73;;;;;;;22.13;71.42;101357.16;4883713;29;20255;-78
2021/08/10 13:26:25;;;;;;;;;;;;;;;22.78;71.22;101359.06;4871607;29;20048;-78
2021/08/10 13:29:40;;;;;;;3.65;1.65;;;;;;;23.52;59.27;101347.69;4872768;29;19920;-77
2021/08/10 13:32:19;;;;;;;7.45;1.70;;;;;;;24.18;59.56;101360.75;4856317;29;20033;-76
2021/08/10 13:34:52;;;;;;;2.75;1.85;;;;;;;24.27;60.38;101370.97;4880848;29;20149;-79
2021/08/10 13:37:24;;;;;;;4.72;1.80;;;;;;;24.41;61.52;101360.09;4893616;29;20612;-77
2021/08/10 13:39:51;;;;;;;4.88;2.10;;;;;;;24.90;55.96;101358.28;4862868;29;20565;-78
2021/08/10 13:42:17;;;;;;;3.95;2.00;;;;;;;24.53;53.69;101352.16;4847218;29;20120;-77
2021/08/10 13:44:49;;;;;;;3.65;1.85;;;;;;;24.10;57.11;101362.69;4862028;29;20212;-78
2021/08/10 13:47:35;;;;;;;4.57;2.28;;;;;;;24.49;57.50;101357.13;4861214;29;20072;-78
2021/08/10 13:50:06;;;;;;;4.43;1.90;;;;;;;24.91;56.07;101354.56;4861564;29;20051;-76
2021/08/10 13:52:34;;;;;;;3.05;2.17;;;;;;;24.57;58.80;101356.03;4847292;29;20133;-79
2021/08/10 13:55:10;;;;;;;2.38;2.03;;;;;;;24.12;57.22;101356.28;4869420;29;20052;-78
2021/08/10 13:57:56;;;;;;;4.45;2.13;;;;;;;23.14;58.74;101347.78;4871997;29;20044;-79
2021/08/10 14:00:32;;;;;;;5.38;2.22;;;;;;;22.88;63.81;101357.53;4892970;29;20148;-77
2021/08/10 14:03:03;;;;;;;3.45;2.30;;;;;;;22.52;66.96;101350.09;4865711;29;20490;-76
2021/08/10 14:05:41;;;;;;;4.25;2.28;;;;;;;22.26;69.64;101345.66;4869745;29;20503;-79
2021/08/10 14:08:16;;;;;;;3.60;2.28;;;;;;;22.52;67.84;101348.22;4882562;29;20044;-78
2021/08/10 14:10:51;;;;;;;3.88;2.15;;;;;;;23.00;62.75;101351.53;4880461;29;20029;-76
2021/08/10 14:13:36;;;;;;;4.43;2.20;;;;;;;22.98;66.84;101340.22;4878474;29;20490;-78
2021/08/10 14:16:19;;;;;;;3.08;2.08;;;;;;;23.09;65.21;101355.63;4875082;29;20048;-78
2021/08/10 14:19:07;;;;;;;4.45;2.40;;;;;;;22.97;63.18;101344.75;4850303;29;20490;-77
2021/08/10 14:21:41;;;;;;;3.50;2.20;;;;;;;23.42;60.39;101341.22;4846290;29;20052;-79
2021/08/10 14:24:38;;;;;;;3.17;2.13;;;;;;;23.31;57.07;101342.72;4886267;29;20048;-77
2021/08/10 14:27:28;;;;;;;4.53;2.20;;;;;;;22.59;60.35;101337.53;4869925;29;20120;-78
2021/08/10 14:30:38;;;;;;;4.47;2.28;;;;;;;21.77;72.71;101353.91;4835754;29;20066;-77
2021/08/10 14:33:24;;;;;;;4.50;2.30;;;;;;;21.07;76.79;101353.38;4866623;29;20036;-78
2021/08/10 14:36:07;;;;;;;3.83;1.80;;;;;;;20.51;68.25;101364.19;4844907;29;20056;-77
2021/08/10 14:39:00;;;;;;;2.28;2.00;;;;;;;19.96;72.39;101370.19;4866233;29;20073;-78
2021/08/10 14:41:44;;;;;;;2.50;1.50;;;;;;;19.30;76.41;101356.28;4855036;29;20038;-77
2021/08/10 14:44:45;;;;;;;7.25;1.92;;;;;;;18.80;80.63;101383.53;4837207;29;20054;-77
2021/08/10 14:53:47;;;;;;;10.10;3.03;;;;;;;17.30;95.14;101378.88;5183433;23;20124;-79
2021/08/10 14:56:59;;;;;;;12.88;4.03;;;;;;;16.89;98.51;101352.59;4848041;29;20105;-76
2021/08/10 15:00:15;;;;;;;6.75;3.15;;;;;;;17.78;94.24;101377.88;4835371;29;20037;-79
2021/08/10 15:03:24;;;;;;;7.15;2.88;;;;;;;18.85;89.91;101386.47;4853279;29;20040;-79
2021/08/10 15:06:15;;;;;;;7.15;2.10;;;;;;;19.06;86.37;101393.69;4843270;29;20397;-79
2021/08/10 15:08:56;;;;;;;4.72;2.80;;;;;;;18.66;88.77;101381.69;4832933;29;20058;-78
2021/08/10 15:12:20;;;;;;;4.90;2.42;;;;;;;18.78;91.47;101397.97;4978334;23;20051;-76
2021/08/10 15:14:51;;;;;;;5.00;2.10;;;;;;;18.49;92.29;101391.69;4866069;29;20063;-76
2021/08/10 15:25:51;;;;;;;4.05;2.70;;;;;;;17.27;99.25;101381.91;4764639;30;20147;-76
2021/08/10 15:28:33;;;;;;;9.00;3.00;;;;;;;17.35;99.96;101396.09;4732182;30;20042;-76
2021/08/10 15:31:05;;;;;;;6.07;3.05;;;;;;;17.27;99.64;101375.75;4887611;23;20048;-75
2021/08/10 15:39:06;;;;;;;6.40;2.90;;;;;;;17.38;100.00;101395.75;4734653;30;20044;-77
2021/08/10 15:42:42;;;;;;;6.25;2.80;;;;;;;17.48;100.00;101391.06;4920980;23;20044;-77
2021/08/10 15:45:52;;;;;;;;;;;;;;;;;;;;;
2021/08/10 15:48:28;;;;;;;5.30;2.90;;;;;;;17.75;100.00;101395.00;4880330;29;20155;-76
2021/08/10 15:51:24;;;;;;;4.53;2.85;;;;;;;17.73;100.00;101383.75;4884907;29;20032;-76
2021/08/10 15:54:19;;;;;;;8.18;3.28;;;;;;;17.70;100.00;101403.47;4882821;29;20695;-76
2021/08/10 15:56:45;;;;;;;9.18;3.88;;;;;;;17.61;100.00;101409.03;4897803;29;20387;-77
2021/08/10 15:59:16;;;;;;;6.60;4.10;;;;;;;17.57;100.00;101418.34;4869042;29;20050;-76
2021/08/10 16:01:51;;;;;;;6.50;3.67;;;;;;;17.22;98.38;101405.47;4868960;29;20044;-77
2021/08/10 16:04:18;;;;;;;5.13;3.80;;;;;;;16.98;100.00;101414.34;4867804;29;20032;-76
2021/08/10 16:07:00;;;;;;;4.78;3.42;;;;;;;16.77;98.24;101412.25;4869181;29;20068;-76
2021/08/10 16:09:52;;;;;;;6.63;3.30;;;;;;;16.59;98.00;101427.53;4908671;29;20377;-77
2021/08/10 16:12:57;;;;;;;5.53;3.00;;;;;;;16.44;99.82;101425.56;4876853;29;20094;-77
2021/08/10 16:16:31;;;;;;;4.82;3.15;;;;;;;16.24;99.60;101414.53;4870812;29;20047;-76
2021/08/10 16:22:24;;;;;;;8.55;3.97;;;;;;;16.08;100.00;101418.00;4901662;29;20433;-76
2021/08/10 16:25:19;;;;;;;9.60;3.85;;;;;;;16.20;100.00;101431.75;4867830;29;20060;-77
2021/08/10 16:27:47;;;;;;;7.10;4.10;;;;;;;16.22;100.00;101424.47;4872686;29;20051;-75
2021/08/10 16:30:19;;;;;;;5.38;3.60;;;;;;;16.32;100.00;101424.28;4882346;29;20055;-76
2021/08/10 16:32:48;;;;;;;;;;;;;;;16.25;100.00;101421.47;4890656;29;20033;-76
2021/08/10 16:35:25;;;;;;;7.40;3.95;;;;;;;16.28;100.00;101431.72;4876754;29;20381;-75
2021/08/10 16:38:04;;;;;;;6.45;3.90;;;;;;;16.37;100.00;101427.25;4902043;29;20047;-75
2021/08/10 16:40:59;;;;;;;4.85;3.83;;;;;;;16.38;100.00;101428.88;4888852;29;20111;-76
2021/08/10 16:43:56;;;;;;;7.88;4.32;;;;;;;16.39;100.00;101419.97;4879032;29;20036;-77
2021/08/10 16:46:28;;;;;;;6.88;4.13;;;;;;;16.20;100.00;101422.94;4793472;29;20121;-76
2021/08/10 16:48:59;;;;;;;5.70;4.40;;;;;;;16.22;100.00;101423.59;4879947;29;20063;-76
2021/08/10 16:51:29;;;;;;;6.60;4.70;;;;;;;16.22;100.00;101431.53;4895274;29;20033;-75
2021/08/10 16:54:07;;;;;;;11.35;5.60;;;;;;;16.09;100.00;101418.84;4870398;29;20044;-76